Time;durP1;ratioP1;P1;durP2;ratioP2;P2;SDS_P1;SDS_P2;PMS_P1;PMS_P2;Temp;Humidity;BMP_temperature;BMP_pressure;BME280_temperature;BME280_humidity;BME280_pressure;Samples;Min_cycle;Max_cycle;Signal;HPM_P1;HPM_P2
2022/06/28 00:01:33;;;;;;;11.97;10.87;;;;;;;17.62;80.94;101215.97;4983584;28;20297;-81
2022/06/28 00:04:00;;;;;;;13.03;10.60;;;;;;;17.58;80.92;101209.13;4985726;28;20213;-82
2022/06/28 00:06:26;;;;;;;10.33;9.43;;;;;;;17.56;80.76;101221.03;4996739;28;20223;-81
2022/06/28 00:08:53;;;;;;;9.67;8.70;;;;;;;17.55;80.77;101232.81;4995927;28;20214;-78
2022/06/28 00:11:19;;;;;;;8.97;8.17;;;;;;;17.53;80.56;101234.75;4987903;28;20329;-81
2022/06/28 00:13:46;;;;;;;9.13;8.27;;;;;;;17.51;80.39;101240.28;4988107;28;20215;-79
2022/06/28 00:16:16;;;;;;;8.63;7.80;;;;;;;17.48;80.18;101245.06;4993423;28;20240;-81
2022/06/28 00:18:43;;;;;;;13.27;8.07;;;;;;;17.46;80.19;101252.41;4991250;28;20210;-80
2022/06/28 00:21:10;;;;;;;9.20;7.73;;;;;;;17.46;79.96;101253.25;4991594;28;20688;-81
2022/06/28 00:23:39;;;;;;;8.67;7.83;;;;;;;17.45;79.67;101256.06;4991962;28;20229;-81
2022/06/28 00:26:07;;;;;;;9.03;7.37;;;;;;;17.45;79.96;101261.47;5001002;28;20226;-81
2022/06/28 00:28:33;;;;;;;8.23;7.43;;;;;;;17.46;79.89;101264.03;4991468;28;20210;-81
2022/06/28 00:31:00;;;;;;;7.93;7.13;;;;;;;17.46;79.75;101274.81;4989446;28;20338;-81
2022/06/28 00:33:27;;;;;;;8.67;7.70;;;;;;;17.47;79.76;101279.22;4997279;28;20219;-80
2022/06/28 00:35:54;;;;;;;7.53;6.93;;;;;;;17.46;79.68;101282.03;4991603;28;20245;-81
2022/06/28 00:38:21;;;;;;;8.50;7.67;;;;;;;17.46;79.62;101280.19;4984922;28;20211;-81
2022/06/28 00:40:50;;;;;;;8.73;7.97;;;;;;;17.47;79.60;101276.50;4988424;28;20213;-81
2022/06/28 00:43:19;;;;;;;9.40;8.13;;;;;;;17.48;79.57;101282.75;4986263;28;20212;-80
2022/06/28 00:45:46;;;;;;;8.23;7.33;;;;;;;17.48;79.54;101282.75;4997865;28;20221;-81
2022/06/28 00:48:14;;;;;;;9.00;7.23;;;;;;;17.48;79.26;101283.63;4996910;28;20218;-80
2022/06/28 00:50:43;;;;;;;8.73;7.33;;;;;;;17.49;79.13;101281.78;4992006;28;20237;-82
2022/06/28 00:53:12;;;;;;;8.33;7.50;;;;;;;17.50;79.25;101296.97;4991641;28;20226;-81
2022/06/28 00:55:39;;;;;;;7.10;6.40;;;;;;;17.48;79.07;101291.69;4989291;28;20234;-82
2022/06/28 00:58:06;;;;;;;7.67;6.63;;;;;;;17.50;79.12;101291.56;4992611;28;20217;-81
2022/06/28 01:00:36;;;;;;;8.70;6.90;;;;;;;17.49;79.00;101290.72;4990440;28;20215;-80
2022/06/28 01:03:03;;;;;;;8.23;7.53;;;;;;;17.48;79.01;101290.84;4983472;28;20596;-80
2022/06/28 01:05:30;;;;;;;7.87;7.13;;;;;;;17.45;78.75;101288.38;4996005;28;20236;-81
2022/06/28 01:07:59;;;;;;;7.53;6.80;;;;;;;17.44;78.95;101302.84;4987616;28;20212;-81
2022/06/28 01:10:26;;;;;;;9.10;7.57;;;;;;;17.42;78.96;101294.03;4991934;28;20821;-80
2022/06/28 01:12:52;;;;;;;8.20;7.37;;;;;;;17.40;78.89;101296.84;4985569;28;20209;-80
2022/06/28 01:15:19;;;;;;;7.63;6.67;;;;;;;17.40;78.92;101302.22;4995422;28;20603;-80
2022/06/28 01:17:45;;;;;;;8.13;6.90;;;;;;;17.39;79.08;101303.19;4991423;28;20208;-81
2022/06/28 01:20:12;;;;;;;7.90;6.83;;;;;;;17.38;78.74;101295.28;4997022;28;20208;-80
2022/06/28 01:22:41;;;;;;;7.87;6.23;;;;;;;17.38;78.52;101297.97;4986870;28;20210;-80
2022/06/28 01:25:09;;;;;;;7.47;6.63;;;;;;;17.35;78.63;101299.94;4990501;28;20238;-81
2022/06/28 01:27:37;;;;;;;6.80;6.20;;;;;;;17.33;78.42;101307.28;4992911;28;20217;-81
2022/06/28 01:30:05;;;;;;;7.47;6.47;;;;;;;17.31;78.41;101313.75;4985737;28;20595;-83
2022/06/28 01:32:32;;;;;;;6.40;5.80;;;;;;;17.28;78.39;101305.91;4986435;28;20219;-81
2022/06/28 01:34:59;;;;;;;8.13;6.17;;;;;;;17.27;78.59;101307.75;4993069;28;20225;-79
2022/06/28 01:37:27;;;;;;;8.47;6.50;;;;;;;17.24;78.24;101302.63;4989670;28;20565;-80
2022/06/28 01:39:55;;;;;;;6.90;6.30;;;;;;;17.22;78.01;101299.19;4996661;28;20760;-79
2022/06/28 01:42:21;;;;;;;6.77;6.03;;;;;;;17.18;77.96;101302.28;4994623;28;20589;-81
2022/06/28 01:44:50;;;;;;;6.20;5.53;;;;;;;17.15;77.71;101297.13;4993316;28;20240;-81
2022/06/28 01:47:19;;;;;;;6.47;5.87;;;;;;;17.11;77.64;101307.28;4996899;28;20212;-82
2022/06/28 01:49:46;;;;;;;5.90;5.30;;;;;;;17.06;77.35;101304.09;4989694;28;20253;-80
2022/06/28 01:52:12;;;;;;;5.60;5.10;;;;;;;17.01;77.27;101306.31;4993676;28;20223;-81
2022/06/28 01:54:39;;;;;;;5.90;5.33;;;;;;;16.96;77.15;101304.00;4992772;28;20680;-79
2022/06/28 01:57:07;;;;;;;5.70;5.20;;;;;;;16.90;77.06;101298.22;4998936;28;20222;-81
2022/06/28 01:59:33;;;;;;;6.23;5.53;;;;;;;16.88;77.09;101294.81;4987665;28;20211;-81
2022/06/28 02:02:00;;;;;;;6.30;5.60;;;;;;;16.81;76.82;101301.66;4991374;28;20205;-79
2022/06/28 02:04:29;;;;;;;5.70;5.20;;;;;;;16.77;76.85;101298.34;4990943;28;20221;-82
2022/06/28 02:06:56;;;;;;;6.37;5.43;;;;;;;16.71;76.87;101304.22;4993515;28;20697;-80
2022/06/28 02:09:23;;;;;;;5.97;5.30;;;;;;;16.66;76.86;101311.78;4990704;28;20215;-80
2022/06/28 02:11:50;;;;;;;6.77;5.70;;;;;;;16.60;76.88;101313.09;4994277;28;20229;-81
2022/06/28 02:14:18;;;;;;;6.17;5.57;;;;;;;16.57;76.96;101316.03;4995839;28;20205;-82
2022/06/28 02:16:45;;;;;;;6.13;5.53;;;;;;;16.51;76.64;101313.78;4992312;28;20236;-82
2022/06/28 02:19:12;;;;;;;5.40;4.90;;;;;;;16.47;76.77;101316.88;4995481;28;20217;-82
2022/06/28 02:21:40;;;;;;;6.00;4.77;;;;;;;16.42;76.77;101317.22;4990668;28;20221;-80
2022/06/28 02:24:08;;;;;;;6.90;5.03;;;;;;;16.40;76.91;101321.84;4994926;28;20210;-81
2022/06/28 02:26:35;;;;;;;5.80;4.60;;;;;;;16.37;76.50;101322.06;4994972;28;20229;-81
2022/06/28 02:29:04;;;;;;;6.27;5.13;;;;;;;16.31;76.65;101318.03;4991339;28;20225;-82
2022/06/28 02:31:32;;;;;;;5.37;4.40;;;;;;;16.29;76.59;101321.81;4994664;28;20225;-81
2022/06/28 02:33:59;;;;;;;6.43;4.93;;;;;;;16.25;76.50;101321.19;4996223;28;20217;-81
2022/06/28 02:41:54;;;;;;;6.07;4.80;;;;;;;16.15;75.91;101305.88;4988532;28;20699;-82
2022/06/28 02:44:21;;;;;;;5.23;4.73;;;;;;;16.13;75.86;101313.19;4999414;28;20209;-82
2022/06/28 02:46:49;;;;;;;5.63;5.13;;;;;;;16.10;76.15;101314.31;4995826;28;20232;-79
2022/06/28 02:49:16;;;;;;;5.33;4.83;;;;;;;16.06;76.16;101318.19;4991474;28;20202;-83
2022/06/28 02:51:43;;;;;;;6.00;4.83;;;;;;;16.04;76.05;101328.19;4993502;28;20724;-81
2022/06/28 02:54:10;;;;;;;5.63;4.97;;;;;;;16.01;76.01;101328.41;4993172;28;20236;-81
2022/06/28 02:56:37;;;;;;;5.17;4.67;;;;;;;15.99;76.12;101327.69;4997859;28;20764;-79
2022/06/28 02:59:04;;;;;;;5.90;5.27;;;;;;;15.95;76.17;101332.41;4995221;28;20292;-81
2022/06/28 03:01:31;;;;;;;5.87;4.43;;;;;;;15.91;76.05;101330.97;4989164;28;20209;-79
2022/06/28 03:03:59;;;;;;;7.33;5.00;;;;;;;15.88;76.25;101328.50;4995168;28;20210;-81
2022/06/28 03:06:25;;;;;;;6.13;4.93;;;;;;;15.86;76.39;101327.75;4990053;28;20659;-80
2022/06/28 03:08:52;;;;;;;5.73;5.23;;;;;;;15.84;76.12;101323.47;4989744;28;20584;-80
2022/06/28 03:11:18;;;;;;;4.97;4.57;;;;;;;15.82;76.39;101331.63;4986870;28;20228;-82
2022/06/28 03:13:45;;;;;;;5.37;4.87;;;;;;;15.79;76.10;101326.47;4991349;28;20222;-81
2022/06/28 03:16:11;;;;;;;6.10;4.73;;;;;;;15.78;76.40;101324.75;4996617;28;20231;-77
2022/06/28 03:18:38;;;;;;;5.53;4.63;;;;;;;15.76;76.56;101328.56;4997262;28;20212;-80
2022/06/28 03:21:06;;;;;;;6.63;5.50;;;;;;;15.75;76.54;101340.28;4992445;28;20213;-82
2022/06/28 03:23:32;;;;;;;7.17;5.83;;;;;;;15.70;76.90;101345.97;4993509;28;20684;-81
2022/06/28 03:25:59;;;;;;;8.23;6.40;;;;;;;15.68;77.51;101345.22;4986625;28;20231;-83
2022/06/28 03:28:25;;;;;;;7.07;6.37;;;;;;;15.67;77.35;101348.03;4993343;28;20211;-81
2022/06/28 03:30:52;;;;;;;6.67;6.07;;;;;;;15.64;77.71;101351.78;4984772;28;20225;-81
2022/06/28 03:33:18;;;;;;;7.43;6.43;;;;;;;15.60;77.88;101355.66;4993119;28;20210;-81
2022/06/28 03:35:45;;;;;;;7.03;6.43;;;;;;;15.58;77.83;101358.47;4986517;28;20220;-80
2022/06/28 03:38:13;;;;;;;8.37;7.03;;;;;;;15.55;77.90;101360.50;4990664;28;20207;-81
2022/06/28 03:40:39;;;;;;;9.03;7.67;;;;;;;15.52;78.18;101363.41;4989962;28;20215;-81
2022/06/28 03:43:06;;;;;;;7.80;7.10;;;;;;;15.49;78.27;101371.66;4987202;28;20212;-81
2022/06/28 03:45:33;;;;;;;8.17;7.23;;;;;;;15.47;78.18;101368.22;4991662;28;20828;-81
2022/06/28 03:47:59;;;;;;;9.57;7.77;;;;;;;15.43;78.20;101369.41;4991631;28;20206;-82
2022/06/28 03:50:26;;;;;;;9.13;8.20;;;;;;;15.40;78.53;101369.66;4998387;28;20671;-80
2022/06/28 03:52:52;;;;;;;8.57;7.53;;;;;;;15.37;78.89;101376.09;4989383;28;20201;-81
2022/06/28 03:55:20;;;;;;;9.30;7.97;;;;;;;15.34;78.88;101378.16;4987628;28;20227;-81
2022/06/28 03:57:47;;;;;;;9.80;8.83;;;;;;;15.32;78.65;101396.19;4987363;28;20583;-80
2022/06/28 04:00:14;;;;;;;11.47;8.90;;;;;;;15.29;79.03;101391.88;4984955;28;20208;-81
2022/06/28 04:02:41;;;;;;;9.07;7.77;;;;;;;15.25;79.48;101388.56;4987085;28;20662;-79
2022/06/28 04:05:08;;;;;;;10.93;8.60;;;;;;;15.23;79.17;101395.00;4985158;28;20234;-80
2022/06/28 04:07:34;;;;;;;11.93;9.60;;;;;;;15.21;79.58;101395.13;4984813;28;20207;-80
2022/06/28 04:10:00;;;;;;;8.63;7.83;;;;;;;15.20;79.81;101398.78;4991709;28;20207;-82
2022/06/28 04:12:28;;;;;;;8.70;7.97;;;;;;;15.17;79.81;101396.31;4987200;28;20231;-80
2022/06/28 04:14:55;;;;;;;8.97;8.07;;;;;;;15.14;79.41;101406.41;4988957;28;20246;-82
2022/06/28 04:17:21;;;;;;;10.60;8.40;;;;;;;15.11;79.76;101404.78;4978189;28;20208;-79
2022/06/28 04:19:48;;;;;;;8.90;8.00;;;;;;;15.11;80.12;101406.59;4983998;28;20298;-81
2022/06/28 04:22:14;;;;;;;10.60;8.67;;;;;;;15.12;80.56;101400.28;4985555;28;20207;-81
2022/06/28 04:24:41;;;;;;;10.53;9.43;;;;;;;15.14;80.36;101407.25;4979332;28;20210;-83
2022/06/28 04:27:07;;;;;;;9.57;8.60;;;;;;;15.16;80.56;101416.06;4990430;28;20208;-81
2022/06/28 04:29:35;;;;;;;9.63;8.67;;;;;;;15.18;80.18;101406.06;4986471;28;20845;-82
2022/06/28 04:32:02;;;;;;;10.23;8.70;;;;;;;15.19;80.71;101413.16;4987148;28;20625;-81
2022/06/28 04:34:28;;;;;;;11.13;10.03;;;;;;;15.20;80.95;101409.50;4987870;28;20215;-81
2022/06/28 04:36:58;;;;;;;10.03;9.20;;;;;;;15.23;80.82;101413.78;4987696;28;20558;-82
2022/06/28 04:39:25;;;;;;;11.37;10.27;;;;;;;15.24;80.94;101420.88;4985528;28;20295;-81
2022/06/28 04:41:51;;;;;;;11.57;10.17;;;;;;;15.26;80.94;101418.94;4981674;28;20227;-80
2022/06/28 04:44:18;;;;;;;11.80;10.57;;;;;;;15.28;80.85;101423.22;4978053;28;20235;-81
2022/06/28 04:46:45;;;;;;;11.43;10.30;;;;;;;15.31;81.10;101422.16;4980241;28;20235;-81
2022/06/28 04:49:12;;;;;;;11.10;9.97;;;;;;;15.34;80.97;101424.63;4983361;28;20211;-81
2022/06/28 04:51:38;;;;;;;10.13;9.23;;;;;;;15.37;80.71;101428.94;4983250;28;20298;-81
2022/06/28 04:54:05;;;;;;;11.63;10.43;;;;;;;15.40;80.97;101431.41;4995621;28;20590;-82
2022/06/28 04:56:31;;;;;;;11.83;9.53;;;;;;;15.42;80.63;101429.44;4993258;28;21235;-81
2022/06/28 04:58:58;;;;;;;11.97;10.70;;;;;;;15.45;80.76;101429.22;4981515;28;20204;-81
2022/06/28 05:01:24;;;;;;;11.20;10.10;;;;;;;15.47;80.32;101432.66;4980717;28;20202;-79
2022/06/28 05:03:52;;;;;;;11.30;10.13;;;;;;;15.49;80.38;101441.47;4986150;28;20204;-80
2022/06/28 05:06:19;;;;;;;13.57;11.13;;;;;;;15.51;80.22;101442.22;4985141;28;20335;-78
2022/06/28 05:08:45;;;;;;;11.80;10.23;;;;;;;15.53;80.41;101445.66;4990373;28;20201;-81
2022/06/28 05:11:12;;;;;;;11.53;10.17;;;;;;;15.56;80.85;101445.47;4988150;28;20396;-81
2022/06/28 05:13:38;;;;;;;11.83;10.60;;;;;;;15.59;80.71;101445.22;4990333;28;20201;-80
2022/06/28 05:16:05;;;;;;;12.50;10.60;;;;;;;15.65;80.79;101447.50;4992725;28;20318;-80
2022/06/28 05:18:31;;;;;;;12.97;11.40;;;;;;;15.71;81.02;101438.13;4980998;28;20250;-81
2022/06/28 05:20:59;;;;;;;14.53;11.73;;;;;;;15.75;80.82;101431.59;4989056;28;20204;-84
2022/06/28 05:23:26;;;;;;;12.17;11.00;;;;;;;15.81;80.71;101442.72;4990286;28;20207;-82
2022/06/28 05:25:58;;;;;;;13.47;11.40;;;;;;;15.89;80.92;101429.59;4997822;28;20239;-81
2022/06/28 05:28:24;;;;;;;12.43;11.20;;;;;;;15.96;80.69;101430.84;4987698;28;20226;-83
2022/06/28 05:30:51;;;;;;;14.43;11.73;;;;;;;16.05;80.72;101421.28;4982962;28;20229;-83
2022/06/28 05:33:18;;;;;;;14.80;11.57;;;;;;;16.14;80.51;101422.41;4988095;28;20205;-85
2022/06/28 05:35:44;;;;;;;12.53;11.27;;;;;;;16.23;80.19;101421.72;4997734;28;20617;-81
2022/06/28 05:38:12;;;;;;;12.10;10.77;;;;;;;16.32;79.71;101418.34;4987439;28;20211;-83
2022/06/28 05:40:39;;;;;;;13.37;12.00;;;;;;;16.42;79.19;101424.75;4992612;28;20743;-82
2022/06/28 05:43:05;;;;;;;13.30;11.90;;;;;;;16.52;78.66;101422.22;4990583;28;20213;-83
2022/06/28 05:45:32;;;;;;;12.83;11.53;;;;;;;16.61;78.13;101422.38;4988134;28;20257;-83
2022/06/28 05:47:58;;;;;;;12.27;11.03;;;;;;;16.73;77.54;101428.69;4986595;28;20206;-83
2022/06/28 05:50:25;;;;;;;12.23;10.80;;;;;;;16.82;76.60;101429.81;4990740;28;20604;-85
2022/06/28 05:52:52;;;;;;;12.10;10.80;;;;;;;16.94;76.55;101424.34;4987457;28;20639;-85
2022/06/28 05:55:20;;;;;;;11.17;9.80;;;;;;;17.08;75.95;101428.63;4993023;28;20249;-85
2022/06/28 05:57:46;;;;;;;11.43;10.33;;;;;;;17.22;75.51;101431.09;4991849;28;20210;-81
2022/06/28 06:00:14;;;;;;;10.47;9.47;;;;;;;17.37;75.08;101434.44;4994606;28;20217;-83
2022/06/28 06:02:41;;;;;;;11.63;9.63;;;;;;;17.49;73.80;101424.50;4998377;28;20746;-83
2022/06/28 06:05:08;;;;;;;10.37;9.20;;;;;;;17.59;73.26;101436.25;4992592;28;20229;-83
2022/06/28 06:07:35;;;;;;;9.97;9.00;;;;;;;17.72;72.92;101426.25;4996416;28;20206;-82
2022/06/28 06:10:01;;;;;;;10.33;9.07;;;;;;;17.89;72.36;101432.97;4991055;28;20208;-84
2022/06/28 06:12:29;;;;;;;9.23;8.33;;;;;;;18.01;71.26;101435.50;4990063;28;20223;-83
2022/06/28 06:14:59;;;;;;;9.20;8.10;;;;;;;18.10;70.37;101435.72;4991572;28;20235;-84
2022/06/28 06:17:26;;;;;;;9.93;8.83;;;;;;;18.20;69.50;101433.97;4988406;28;20209;-83
2022/06/28 06:19:55;;;;;;;10.20;9.17;;;;;;;18.34;69.34;101433.69;4988569;28;20206;-83
2022/06/28 06:22:22;;;;;;;8.97;7.80;;;;;;;18.48;68.67;101435.22;4991453;28;20209;-83
2022/06/28 06:24:48;;;;;;;8.43;7.53;;;;;;;18.62;68.02;101434.97;4995603;28;20234;-85
2022/06/28 06:27:15;;;;;;;8.63;7.73;;;;;;;18.76;67.18;101436.47;4991549;28;20585;-83
2022/06/28 06:29:43;;;;;;;8.23;7.53;;;;;;;18.89;66.64;101439.84;4989196;28;20204;-85
2022/06/28 06:32:10;;;;;;;6.97;6.33;;;;;;;19.03;65.81;101442.19;4983300;28;20329;-83
2022/06/28 06:34:36;;;;;;;7.10;6.37;;;;;;;19.18;64.93;101440.00;4987482;28;20212;-83
2022/06/28 06:37:03;;;;;;;7.53;6.47;;;;;;;19.33;64.58;101444.09;4987566;28;20211;-83
2022/06/28 06:39:30;;;;;;;6.53;5.60;;;;;;;19.50;64.00;101437.25;4996171;28;20204;-83
2022/06/28 06:41:56;;;;;;;5.67;4.93;;;;;;;19.64;62.52;101439.56;4990846;28;20208;-83
2022/06/28 06:44:23;;;;;;;6.47;5.57;;;;;;;19.72;61.74;101445.13;4982234;28;20221;-84
2022/06/28 06:46:50;;;;;;;8.40;5.67;;;;;;;19.75;60.94;101445.72;4990119;28;20235;-83
2022/06/28 06:49:17;;;;;;;8.07;5.50;;;;;;;19.80;60.79;101458.84;4997146;28;20213;-83
2022/06/28 06:51:45;;;;;;;7.07;5.30;;;;;;;19.86;60.32;101446.63;4990921;28;20256;-81
2022/06/28 06:54:11;;;;;;;5.40;4.90;;;;;;;19.95;59.71;101453.91;4997003;28;20694;-83
2022/06/28 06:56:39;;;;;;;7.37;4.30;;;;;;;20.07;59.77;101450.06;4993537;28;20232;-82
2022/06/28 06:59:07;;;;;;;4.60;4.10;;;;;;;20.22;59.23;101454.13;4983957;28;20200;-83
2022/06/28 07:01:33;;;;;;;4.50;4.10;;;;;;;20.33;58.05;101451.28;4991781;28;20648;-84
2022/06/28 07:04:01;;;;;;;4.40;3.85;;;;;;;20.44;57.60;101448.44;4987447;28;20218;-85
2022/06/28 07:06:28;;;;;;;5.13;4.07;;;;;;;20.54;56.63;101459.28;4991755;28;20583;-85
2022/06/28 07:08:55;;;;;;;5.60;3.77;;;;;;;20.65;56.30;101450.16;4995478;28;20208;-83
2022/06/28 07:11:21;;;;;;;6.80;3.90;;;;;;;20.77;56.19;101449.91;4998505;28;20217;-84
2022/06/28 07:13:48;;;;;;;5.50;3.77;;;;;;;20.93;55.82;101448.47;4992368;28;20206;-83
2022/06/28 07:16:14;;;;;;;4.88;3.25;;;;;;;21.07;55.19;101450.72;4992435;28;20243;-84
2022/06/28 07:18:42;;;;;;;26.95;6.18;;;;;;;21.15;53.67;101446.25;4988212;28;20919;-82
2022/06/28 07:21:10;;;;;;;8.52;3.15;;;;;;;21.25;53.86;101453.53;4991891;28;20303;-83
2022/06/28 07:23:37;;;;;;;3.92;2.88;;;;;;;21.38;53.75;101451.34;4995897;28;20203;-83
2022/06/28 07:26:04;;;;;;;4.70;3.20;;;;;;;21.52;53.45;101445.47;4985114;28;20235;-84
2022/06/28 07:28:30;;;;;;;4.30;2.47;;;;;;;21.65;52.59;101446.00;4995198;28;20203;-84
2022/06/28 07:30:57;;;;;;;5.07;1.90;;;;;;;21.77;51.68;101446.63;4989687;28;20219;-83
2022/06/28 07:33:23;;;;;;;4.15;1.80;;;;;;;21.88;50.83;101441.00;4984437;28;20226;-84
2022/06/28 07:35:50;;;;;;;4.22;1.83;;;;;;;22.03;50.75;101446.84;4995265;28;20216;-84
2022/06/28 07:38:18;;;;;;;2.45;1.20;;;;;;;22.15;49.20;101448.31;4986756;28;20218;-84
2022/06/28 07:40:44;;;;;;;2.35;1.20;;;;;;;22.26;48.49;101450.78;4990432;28;20200;-83
2022/06/28 07:43:11;;;;;;;1.88;1.13;;;;;;;22.37;47.14;101449.75;4991452;28;20203;-83
2022/06/28 07:45:39;;;;;;;4.20;1.23;;;;;;;22.45;46.73;101441.66;4999977;28;20234;-84
2022/06/28 07:48:08;;;;;;;4.18;1.13;;;;;;;22.56;46.53;101440.59;4997932;28;20212;-83
2022/06/28 07:53:21;;;;;;;2.40;1.00;;;;;;;22.88;45.62;101442.75;4988949;28;20233;-83
2022/06/28 07:55:47;;;;;;;2.83;1.05;;;;;;;23.00;43.70;101453.22;4984744;28;20233;-83
2022/06/28 07:58:16;;;;;;;2.92;0.90;;;;;;;23.03;43.08;101449.31;4990802;28;20205;-83
2022/06/28 08:00:43;;;;;;;5.30;1.58;;;;;;;23.08;42.88;101449.72;4994039;28;20207;-83
2022/06/28 08:03:09;;;;;;;3.92;1.20;;;;;;;23.14;42.95;101447.19;4990176;28;20200;-83
2022/06/28 08:05:36;;;;;;;4.45;1.23;;;;;;;23.17;42.04;101449.59;4990472;28;20219;-85
2022/06/28 08:08:03;;;;;;;3.03;0.98;;;;;;;23.23;43.18;101450.84;4987654;28;20211;-82
2022/06/28 08:10:31;;;;;;;3.15;1.10;;;;;;;23.31;42.47;101448.16;4995326;28;20216;-83
2022/06/28 08:12:57;;;;;;;2.10;0.80;;;;;;;23.36;42.23;101456.69;4996551;28;20653;-83
2022/06/28 08:15:24;;;;;;;2.80;0.95;;;;;;;23.44;42.07;101454.03;4996832;28;20916;-83
2022/06/28 08:17:50;;;;;;;3.63;0.90;;;;;;;23.52;41.74;101462.25;5003801;28;20206;-83
2022/06/28 08:20:17;;;;;;;2.25;0.95;;;;;;;23.62;41.32;101459.44;4995611;28;20213;-83
2022/06/28 08:22:43;;;;;;;2.42;1.10;;;;;;;23.71;41.26;101453.00;4995974;28;20206;-82
2022/06/28 08:25:10;;;;;;;3.03;0.90;;;;;;;23.82;41.12;101450.00;4998329;28;20226;-83
2022/06/28 08:27:38;;;;;;;4.10;1.20;;;;;;;23.95;40.91;101446.81;4984624;28;20622;-83
2022/06/28 08:30:05;;;;;;;3.22;0.98;;;;;;;24.10;41.17;101444.31;4988737;28;20219;-83
2022/06/28 08:32:32;;;;;;;3.15;1.02;;;;;;;24.18;40.46;101455.22;4991481;28;20223;-83
2022/06/28 08:34:59;;;;;;;2.33;0.90;;;;;;;24.18;40.34;101450.59;4986818;28;20231;-84
2022/06/28 08:37:25;;;;;;;3.80;1.15;;;;;;;24.26;39.92;101446.25;4979105;28;20566;-83
2022/06/28 08:39:52;;;;;;;5.78;1.33;;;;;;;24.34;39.36;101449.00;4987162;28;20217;-83
2022/06/28 08:42:26;;;;;;;1.52;0.70;;;;;;;24.45;39.77;101451.38;4988134;28;20197;-83
2022/06/28 08:44:54;;;;;;;3.40;1.10;;;;;;;24.56;38.91;101448.31;4994246;28;20230;-82
2022/06/28 08:47:24;;;;;;;2.95;1.10;;;;;;;24.62;39.23;101444.09;4986807;28;20681;-83
2022/06/28 08:49:55;;;;;;;1.83;0.93;;;;;;;24.72;39.15;101448.34;4994710;28;20211;-83
2022/06/28 08:52:23;;;;;;;1.50;0.80;;;;;;;24.82;39.33;101449.03;4990037;28;20593;-83
2022/06/28 08:54:51;;;;;;;2.28;0.95;;;;;;;24.96;38.62;101441.22;4993711;28;22628;-83
2022/06/28 08:57:19;;;;;;;1.95;1.30;;;;;;;25.04;38.56;101443.94;4992649;28;20741;-83
2022/06/28 08:59:47;;;;;;;4.18;1.20;;;;;;;25.13;38.62;101448.34;4998362;28;20204;-84
2022/06/28 09:02:16;;;;;;;3.47;1.30;;;;;;;25.23;38.43;101443.59;4998505;28;20567;-83
2022/06/28 09:04:48;;;;;;;2.17;1.10;;;;;;;25.34;37.58;101440.47;4993098;28;20639;-83
2022/06/28 09:07:14;;;;;;;2.20;1.00;;;;;;;25.42;37.14;101445.94;4991735;28;20658;-82
2022/06/28 09:09:41;;;;;;;4.32;1.23;;;;;;;25.36;37.50;101449.34;4995012;28;20253;-83
2022/06/28 09:12:08;;;;;;;5.78;1.80;;;;;;;25.32;37.88;101449.84;5004878;28;20234;-83
2022/06/28 09:14:35;;;;;;;2.30;0.90;;;;;;;25.33;37.69;101440.66;5003079;28;20233;-82
2022/06/28 09:17:21;;;;;;;3.90;1.10;;;;;;;25.37;37.61;101442.00;4999244;28;20726;-83
2022/06/28 09:19:48;;;;;;;2.20;1.20;;;;;;;25.46;37.55;101443.66;4987275;28;20208;-81
2022/06/28 09:22:29;;;;;;;4.13;1.02;;;;;;;25.58;37.55;101445.88;4997734;28;20207;-81
2022/06/28 09:24:56;;;;;;;3.10;1.27;;;;;;;25.58;36.85;101442.28;5003031;28;20219;-81
2022/06/28 09:27:29;;;;;;;3.15;1.02;;;;;;;25.59;37.16;101439.41;5010042;28;20670;-82
2022/06/28 09:29:55;;;;;;;2.00;0.98;;;;;;;25.64;37.16;101435.28;5002176;28;20195;-82
2022/06/28 09:32:28;;;;;;;1.83;0.90;;;;;;;25.71;36.64;101441.75;5002939;28;20222;-81
2022/06/28 09:34:56;;;;;;;2.28;0.82;;;;;;;25.76;36.84;101428.44;5001832;28;20214;-82
2022/06/28 09:37:34;;;;;;;1.27;0.90;;;;;;;25.85;36.86;101432.81;5013479;28;20230;-82
2022/06/28 09:40:14;;;;;;;4.40;1.38;;;;;;;25.98;36.52;101444.00;5012306;28;20212;-82
2022/06/28 09:42:41;;;;;;;1.67;0.90;;;;;;;26.03;35.91;101429.84;4974362;28;20188;-80
2022/06/28 09:45:09;;;;;;;1.95;1.00;;;;;;;25.92;35.99;101412.00;4974137;28;20287;-82
2022/06/28 09:47:41;;;;;;;1.23;0.80;;;;;;;25.80;35.99;101425.16;4980553;28;20207;-82
2022/06/28 09:50:11;;;;;;;2.40;1.30;;;;;;;25.79;36.33;101423.50;4994038;28;20195;-82
2022/06/28 09:52:43;;;;;;;1.70;1.02;;;;;;;25.82;36.28;101438.63;4994806;28;20334;-81
2022/06/28 09:55:10;;;;;;;1.42;0.98;;;;;;;25.86;36.19;101431.78;4995052;28;20321;-81
2022/06/28 09:57:37;;;;;;;2.05;0.90;;;;;;;25.89;35.74;101428.72;4999907;28;20205;-81
2022/06/28 10:00:05;;;;;;;4.22;1.15;;;;;;;25.98;35.63;101418.63;5014724;28;20199;-83
2022/06/28 10:02:31;;;;;;;2.10;1.10;;;;;;;26.11;35.42;101421.59;5009807;28;20199;-85
2022/06/28 10:05:01;;;;;;;2.10;1.00;;;;;;;26.19;34.85;101427.00;4994963;28;20223;-81
2022/06/28 10:07:30;;;;;;;3.20;1.17;;;;;;;26.24;34.86;101428.16;4994050;28;20207;-82
2022/06/28 10:09:56;;;;;;;2.88;0.98;;;;;;;26.35;35.21;101429.66;4995160;28;20207;-80
2022/06/28 10:15:09;;;;;;;2.60;0.90;;;;;;;26.38;34.18;101429.31;4993751;28;20234;-82
2022/06/28 10:17:45;;;;;;;5.03;1.35;;;;;;;26.32;34.35;101435.50;4993506;28;20207;-82
2022/06/28 10:20:17;;;;;;;2.05;0.93;;;;;;;26.28;34.39;101434.97;4993744;28;20210;-82
2022/06/28 10:22:44;;;;;;;3.25;1.23;;;;;;;26.33;34.98;101436.34;4993888;28;20187;-82
2022/06/28 10:25:16;;;;;;;1.48;0.80;;;;;;;26.42;34.79;101425.19;4993479;28;20227;-83
2022/06/28 10:27:46;;;;;;;1.83;0.90;;;;;;;26.52;34.52;101423.03;5007716;28;20211;-81
2022/06/28 10:30:22;;;;;;;2.30;1.10;;;;;;;26.63;34.72;101425.38;5012898;28;20215;-83
2022/06/28 10:32:50;;;;;;;1.98;1.05;;;;;;;26.72;34.08;101433.47;5012608;28;20245;-82
2022/06/28 10:35:53;;;;;;;1.58;0.90;;;;;;;26.70;33.89;101422.72;5013221;28;20234;-83
2022/06/28 10:38:20;;;;;;;1.60;0.90;;;;;;;26.74;33.93;101426.81;5013866;28;20218;-82
2022/06/28 10:40:49;;;;;;;2.22;0.90;;;;;;;26.76;33.60;101423.88;5013812;28;20213;-81
2022/06/28 10:43:36;;;;;;;2.47;1.23;;;;;;;26.75;33.50;101420.31;5013334;28;20298;-82
2022/06/28 10:46:08;;;;;;;1.58;0.88;;;;;;;26.75;33.43;101419.44;5002804;28;20322;-83
2022/06/28 10:49:06;;;;;;;2.38;0.98;;;;;;;26.80;33.37;101422.50;4994943;28;20665;-82
2022/06/28 10:51:36;;;;;;;1.60;0.90;;;;;;;26.74;32.48;101421.34;4994410;28;20602;-81
2022/06/28 10:54:06;;;;;;;1.23;0.85;;;;;;;26.72;32.38;101415.19;4992461;28;20740;-81
2022/06/28 10:56:38;;;;;;;4.03;1.17;;;;;;;26.72;32.66;101415.19;4993145;28;20234;-82
2022/06/28 10:59:07;;;;;;;0.98;0.90;;;;;;;26.70;32.57;101406.34;5002482;28;20195;-82
2022/06/28 11:01:57;;;;;;;2.13;1.00;;;;;;;26.71;32.69;101408.03;5012209;28;20222;-82
2022/06/28 11:04:27;;;;;;;1.60;0.70;;;;;;;26.68;32.61;101402.97;5012774;28;20191;-81
2022/06/28 11:06:57;;;;;;;1.58;0.80;;;;;;;26.68;32.20;101402.13;5011762;28;20272;-82
2022/06/28 11:09:32;;;;;;;1.35;0.70;;;;;;;26.69;32.03;101399.19;5012705;28;20203;-82
2022/06/28 11:12:09;;;;;;;0.70;0.70;;;;;;;26.75;31.74;101398.44;5011939;28;20195;-79
2022/06/28 11:14:46;;;;;;;0.95;0.70;;;;;;;26.82;31.72;101401.31;5011717;28;20226;-83
2022/06/28 11:17:18;;;;;;;1.27;0.90;;;;;;;26.91;31.95;101398.28;5011948;28;20186;-81
2022/06/28 11:19:52;;;;;;;2.60;0.80;;;;;;;27.02;31.51;101398.91;5011587;28;20245;-82
2022/06/28 11:22:24;;;;;;;1.60;0.70;;;;;;;27.06;31.06;101392.88;4996599;28;20301;-81
2022/06/28 11:24:52;;;;;;;1.92;1.20;;;;;;;27.18;30.49;101382.34;4991840;28;20195;-81
2022/06/28 11:27:21;;;;;;;1.58;0.80;;;;;;;27.25;30.48;101381.38;4991606;28;20214;-82
2022/06/28 11:29:49;;;;;;;2.13;0.68;;;;;;;27.32;30.25;101373.28;4991482;28;20212;-81
2022/06/28 11:32:17;;;;;;;0.80;0.80;;;;;;;27.38;30.01;101369.81;4991598;28;20211;-81
2022/06/28 11:34:44;;;;;;;1.65;0.90;;;;;;;27.44;30.30;101373.66;4991937;28;20231;-82
2022/06/28 11:37:11;;;;;;;1.48;0.88;;;;;;;27.52;30.49;101374.41;4991613;28;20239;-83